Time;durP1;ratioP1;P1;durP2;ratioP2;P2;SDS_P1;SDS_P2;PMS_P1;PMS_P2;Temp;Humidity;BMP_temperature;BMP_pressure;BME280_temperature;BME280_humidity;BME280_pressure;Samples;Min_cycle;Max_cycle;Signal;HPM_P1;HPM_P2
2022/10/04 00:01:20;;;;;;;;;;;;;;;6.46;100.00;95181.63;5055433;28;19952;-69
2022/10/04 00:04:00;;;;;;;;;;;;;;;6.65;100.00;95180.06;5054393;28;19928;-70
2022/10/04 00:06:27;;;;;;;;;;;;;;;6.76;100.00;95182.06;5053056;28;20007;-70
2022/10/04 00:09:22;;;;;;;;;;;;;;;6.72;100.00;95180.06;5054533;28;19928;-68
2022/10/04 00:11:52;;;;;;;;;;;;;;;6.81;100.00;95190.03;5050108;28;19929;-69
2022/10/04 00:14:24;;;;;;;;;;;;;;;6.79;100.00;95186.03;5053281;28;19986;-69
2022/10/04 00:16:51;;;;;;;;;;;;;;;6.80;100.00;95185.06;5051303;28;19928;-69
2022/10/04 00:19:18;;;;;;;;;;;;;;;6.70;100.00;95183.66;5052667;28;19936;-69
2022/10/04 00:21:57;;;;;;;;;;;;;;;6.77;100.00;95177.66;5050441;28;20028;-69
2022/10/04 00:24:30;;;;;;;;;;;;;;;6.89;100.00;95181.25;5053932;28;19929;-71
2022/10/04 00:27:06;;;;;;;;;;;;;;;6.89;100.00;95170.91;5046146;28;20017;-70
2022/10/04 00:29:34;;;;;;;;;;;;;;;6.92;100.00;95170.53;5085479;28;19928;-70
2022/10/04 00:32:10;;;;;;;;;;;;;;;6.86;100.00;95171.31;5041496;28;19978;-69
2022/10/04 00:34:50;;;;;;;;;;;;;;;6.84;100.00;95162.94;5043247;28;19928;-69
2022/10/04 00:37:18;;;;;;;;;;;;;;;6.72;100.00;95154.16;5038482;28;19980;-69
2022/10/04 00:39:46;;;;;;;;;;;;;;;6.73;100.00;95151.38;5045719;28;20039;-69
2022/10/04 00:42:28;;;;;;;;;;;;;;;6.71;100.00;95158.56;5045731;28;20030;-69
2022/10/04 00:45:06;;;;;;;;;;;;;;;6.64;100.00;95145.59;5044303;28;19964;-68
2022/10/04 00:47:51;;;;;;;;;;;;;;;6.61;100.00;95145.19;5047870;28;20541;-69
2022/10/04 00:50:20;;;;;;;;;;;;;;;6.56;100.00;95150.19;5043604;28;20001;-69
2022/10/04 00:52:50;;;;;;;;;;;;;;;6.43;100.00;95145.81;5041507;28;19928;-68
2022/10/04 00:55:22;;;;;;;;;;;;;;;6.28;100.00;95149.34;5042934;28;20479;-69
2022/10/04 00:57:52;;;;;;;;;;;;;;;6.18;100.00;95148.94;5044125;28;20019;-69
2022/10/04 01:00:20;;;;;;;;;;;;;;;6.05;100.00;95149.69;5050249;28;19935;-68
2022/10/04 01:02:58;;;;;;;;;;;;;;;5.94;100.00;95145.84;5041628;28;19986;-69
2022/10/04 01:05:29;;;;;;;;;;;;;;;5.81;100.00;95140.63;5043521;28;20731;-69
2022/10/04 01:07:55;;;;;;;;;;;;;;;5.79;100.00;95145.19;5041212;28;19978;-69
2022/10/04 01:10:35;;;;;;;;;;;;;;;5.78;100.00;95146.19;5052192;28;20025;-69
2022/10/04 01:13:14;;;;;;;;;;;;;;;5.64;100.00;95141.94;5040124;28;19929;-69
2022/10/04 01:15:49;;;;;;;;;;;;;;;5.69;100.00;95144.72;5046362;28;20651;-69
2022/10/04 01:18:19;;;;;;;;;;;;;;;5.62;100.00;95144.72;5045708;28;20172;-68
2022/10/04 01:20:51;;;;;;;;;;;;;;;5.63;100.00;95145.50;5044897;28;19933;-68
2022/10/04 01:23:33;;;;;;;;;;;;;;;5.49;100.00;95148.03;5044295;28;20042;-69
2022/10/04 01:26:01;;;;;;;;;;;;;;;5.42;100.00;95149.78;5047023;28;19929;-68
2022/10/04 01:28:28;;;;;;;;;;;;;;;5.39;100.00;95145.00;5046748;28;19928;-68
2022/10/04 01:30:54;;;;;;;;;;;;;;;5.49;100.00;95149.81;5047108;28;19966;-68
2022/10/04 01:33:24;;;;;;;;;;;;;;;5.64;100.00;95147.13;5048745;28;19924;-68
2022/10/04 01:35:50;;;;;;;;;;;;;;;5.65;100.00;95148.69;5041767;28;19979;-68
2022/10/04 01:38:17;;;;;;;;;;;;;;;5.55;100.00;95149.84;5043181;28;19939;-68
2022/10/04 01:40:53;;;;;;;;;;;;;;;5.46;100.00;95151.00;5040703;28;19960;-69
2022/10/04 01:43:24;;;;;;;;;;;;;;;5.34;100.00;95147.34;5050281;28;20428;-69
2022/10/04 01:45:55;;;;;;;;;;;;;;;5.49;100.00;95153.22;5047906;28;20027;-68
2022/10/04 01:48:25;;;;;;;;;;;;;;;5.36;100.00;95150.53;5056249;28;19929;-68
2022/10/04 01:50:51;;;;;;;;;;;;;;;5.37;100.00;95149.56;5044384;28;19964;-68
2022/10/04 01:53:24;;;;;;;;;;;;;;;5.27;100.00;95156.84;5042225;28;19964;-68
2022/10/04 01:55:53;;;;;;;;;;;;;;;5.30;100.00;95151.31;5041028;28;20370;-69
2022/10/04 01:58:26;;;;;;;;;;;;;;;5.51;100.00;95153.81;5040734;28;20032;-69
2022/10/04 02:00:53;;;;;;;;;;;;;;;5.41;100.00;95153.34;5042840;28;20596;-69
2022/10/04 02:03:23;;;;;;;;;;;;;;;5.48;100.00;95159.34;5040271;28;19932;-69
2022/10/04 02:05:53;;;;;;;;;;;;;;;5.36;100.00;95153.13;5044672;28;19928;-70
2022/10/04 02:08:25;;;;;;;;;;;;;;;5.47;100.00;95151.78;5044708;28;19959;-69
2022/10/04 02:10:53;;;;;;;;;;;;;;;5.69;100.00;95147.31;5041692;28;19925;-69
2022/10/04 02:13:23;;;;;;;;;;;;;;;5.73;100.00;95151.13;5037954;28;19987;-69
2022/10/04 02:15:49;;;;;;;;;;;;;;;5.91;100.00;95153.97;5042914;28;20021;-69
2022/10/04 02:18:19;;;;;;;;;;;;;;;6.11;100.00;95164.41;5046081;28;19983;-68
2022/10/04 02:20:47;;;;;;;;;;;;;;;6.22;100.00;95165.66;5046333;28;19932;-68
2022/10/04 02:23:15;;;;;;;;;;;;;;;6.19;100.00;95171.19;5045878;28;19933;-68
2022/10/04 02:25:42;;;;;;;;;;;;;;;6.35;100.00;95169.25;5044339;28;20360;-69
2022/10/04 02:28:10;;;;;;;;;;;;;;;6.43;100.00;95156.16;5040782;28;20652;-69
2022/10/04 02:30:37;;;;;;;;;;;;;;;6.36;100.00;95160.53;5044602;28;20059;-68
2022/10/04 02:33:04;;;;;;;;;;;;;;;6.23;100.00;95162.06;5039049;28;19929;-69
2022/10/04 02:35:57;;;;;;;;;;;;;;;6.23;100.00;95172.44;5044510;28;19928;-69
2022/10/04 02:38:27;;;;;;;;;;;;;;;6.31;100.00;95174.81;5048077;28;20032;-69
2022/10/04 02:41:00;;;;;;;;;;;;;;;6.28;100.00;95180.41;5053546;28;20450;-69
2022/10/04 02:43:39;;;;;;;;;;;;;;;6.22;100.00;95181.16;5054090;28;19958;-68
2022/10/04 02:46:08;;;;;;;;;;;;;;;6.10;100.00;95182.72;5055777;28;19955;-68
2022/10/04 02:48:35;;;;;;;;;;;;;;;6.17;100.00;95187.91;5055016;28;20019;-68
2022/10/04 02:51:11;;;;;;;;;;;;;;;6.23;100.00;95182.78;5055790;28;20685;-68
2022/10/04 02:53:59;;;;;;;;;;;;;;;6.28;100.00;95183.00;5054143;28;19933;-68
2022/10/04 02:56:30;;;;;;;;;;;;;;;6.31;100.00;95190.34;5054692;28;19933;-68
2022/10/04 02:59:00;;;;;;;;;;;;;;;6.39;100.00;95185.97;5059821;28;19928;-69
2022/10/04 03:01:34;;;;;;;;;;;;;;;6.44;100.00;95179.22;5051836;28;20019;-69
2022/10/04 03:04:02;;;;;;;;;;;;;;;6.40;100.00;95187.59;5056877;28;20050;-69
2022/10/04 03:06:31;;;;;;;;;;;;;;;6.52;100.00;95196.38;5051263;28;20567;-69
2022/10/04 03:09:00;;;;;;;;;;;;;;;6.60;100.00;95198.75;5052268;28;20015;-68
2022/10/04 03:11:30;;;;;;;;;;;;;;;6.65;100.00;95201.56;5052958;28;20596;-69
2022/10/04 03:13:58;;;;;;;;;;;;;;;6.68;100.00;95201.19;5056996;28;19929;-68
2022/10/04 03:16:25;;;;;;;;;;;;;;;6.74;100.00;95198.78;5051882;28;19924;-68
2022/10/04 03:18:55;;;;;;;;;;;;;;;6.74;100.00;95198.78;5053316;28;19937;-69
2022/10/04 03:21:23;;;;;;;;;;;;;;;6.83;100.00;95207.97;5052036;28;19935;-69
2022/10/04 03:23:51;;;;;;;;;;;;;;;6.85;100.00;95205.97;5050920;28;20094;-70
2022/10/04 03:26:18;;;;;;;;;;;;;;;6.85;100.00;95201.59;5039732;28;20014;-69
2022/10/04 03:28:45;;;;;;;;;;;;;;;6.83;100.00;95197.59;5047348;28;19982;-69
2022/10/04 03:31:14;;;;;;;;;;;;;;;6.84;100.00;95204.38;5050677;28;19968;-69
2022/10/04 03:33:42;;;;;;;;;;;;;;;6.76;100.00;95207.16;5043890;28;19924;-69
2022/10/04 03:36:12;;;;;;;;;;;;;;;6.76;100.00;95201.97;5086366;28;19972;-69
2022/10/04 03:38:42;;;;;;;;;;;;;;;6.69;100.00;95201.97;5045275;28;20804;-69
2022/10/04 03:41:09;;;;;;;;;;;;;;;6.69;100.00;95201.97;5042517;28;19929;-69
2022/10/04 03:43:39;;;;;;;;;;;;;;;6.53;100.00;95197.94;5078991;28;20027;-71
2022/10/04 03:46:07;;;;;;;;;;;;;;;6.45;100.00;95200.72;5046757;28;19929;-72
2022/10/04 03:48:35;;;;;;;;;;;;;;;6.57;100.00;95199.19;5044536;28;20027;-71
2022/10/04 03:51:03;;;;;;;;;;;;;;;6.65;100.00;95201.56;5047620;28;19951;-71
2022/10/04 03:53:35;;;;;;;;;;;;;;;6.76;100.00;95214.94;5043375;28;20480;-72
2022/10/04 03:56:07;;;;;;;;;;;;;;;6.76;100.00;95218.31;5080385;28;19943;-73
2022/10/04 03:58:34;;;;;;;;;;;;;;;6.77;100.00;95214.72;5051190;28;19937;-72
2022/10/04 04:01:14;;;;;;;;;;;;;;;6.84;100.00;95206.94;5050966;28;20395;-72
2022/10/04 04:03:46;;;;;;;;;;;;;;;6.94;100.00;95214.34;5055528;28;19924;-72
2022/10/04 04:06:17;;;;;;;;;;;;;;;6.94;100.00;95204.78;5053165;28;20589;-72
2022/10/04 04:08:46;;;;;;;;;;;;;;;6.95;100.00;95206.38;5044645;28;19932;-72
2022/10/04 04:11:21;;;;;;;;;;;;;;;6.89;100.00;95212.34;5052032;28;19964;-72
2022/10/04 04:13:51;;;;;;;;;;;;;;;6.83;100.00;95219.09;5049017;28;20035;-72
2022/10/04 04:16:19;;;;;;;;;;;;;;;6.81;100.00;95225.50;5044520;28;20641;-72
2022/10/04 04:18:47;;;;;;;;;;;;;;;6.76;100.00;95222.69;5050121;28;19928;-72
2022/10/04 04:21:17;;;;;;;;;;;;;;;6.49;100.00;95181.22;5045143;28;19990;-72
2022/10/04 04:23:47;;;;;;;;;;;;;;;6.77;100.00;95230.25;5049777;28;19939;-72
2022/10/04 04:26:18;;;;;;;;;;;;;;;6.82;100.00;95229.66;5049039;28;20432;-72
2022/10/04 04:28:49;;;;;;;;;;;;;;;6.86;100.00;95233.44;5045033;28;20648;-72
2022/10/04 04:31:24;;;;;;;;;;;;;;;6.87;100.00;95235.03;5041711;28;20400;-72
2022/10/04 04:33:58;;;;;;;;;;;;;;;6.83;100.00;95228.69;5044392;28;19924;-72
2022/10/04 04:36:28;;;;;;;;;;;;;;;6.76;100.00;95233.03;5041722;28;19941;-72
2022/10/04 04:41:52;;;;;;;;;;;;;;;6.69;100.00;95231.22;5045027;28;20012;-72
2022/10/04 04:44:20;;;;;;;;;;;;;;;6.65;100.00;95239.59;5050220;28;19935;-73
2022/10/04 04:46:47;;;;;;;;;;;;;;;6.61;100.00;95244.38;5043128;28;20021;-72
2022/10/04 04:49:17;;;;;;;;;;;;;;;6.43;100.00;95238.94;5050475;28;19933;-72
2022/10/04 04:51:50;;;;;;;;;;;;;;;6.53;100.00;95244.53;5043395;28;20402;-72
2022/10/04 04:54:21;;;;;;;;;;;;;;;6.46;100.00;95248.88;5050203;28;20001;-72
2022/10/04 04:56:48;;;;;;;;;;;;;;;6.41;100.00;95251.25;5051184;28;19929;-72
2022/10/04 04:59:16;;;;;;;;;;;;;;;6.50;100.00;95258.66;5045657;28;20023;-72
2022/10/04 05:01:44;;;;;;;;;;;;;;;6.45;100.00;95252.50;5044502;28;20018;-72
2022/10/04 05:04:11;;;;;;;;;;;;;;;6.44;100.00;95259.44;5044445;28;20553;-72
2022/10/04 05:06:42;;;;;;;;;;;;;;;6.41;100.00;95261.59;5043897;28;19925;-72
2022/10/04 05:09:21;;;;;;;;;;;;;;;6.24;100.00;95264.53;5043495;28;20032;-72
2022/10/04 05:11:48;;;;;;;;;;;;;;;6.28;100.00;95263.19;5046924;28;19929;-73
2022/10/04 05:14:16;;;;;;;;;;;;;;;6.26;100.00;95259.97;5045673;28;19925;-73
2022/10/04 05:16:50;;;;;;;;;;;;;;;6.31;100.00;95256.81;5050554;28;19963;-73
2022/10/04 05:19:31;;;;;;;;;;;;;;;6.29;100.00;95263.97;5045357;28;19936;-72
2022/10/04 05:21:59;;;;;;;;;;;;;;;6.36;100.00;95254.44;5049100;28;21114;-72
2022/10/04 05:24:28;;;;;;;;;;;;;;;6.32;100.00;95256.63;5044450;28;20548;-72
2022/10/04 05:26:56;;;;;;;;;;;;;;;6.31;100.00;95265.34;5043443;28;19933;-73
2022/10/04 05:29:25;;;;;;;;;;;;;;;6.30;100.00;95266.38;5047815;28;20029;-72
2022/10/04 05:32:12;;;;;;;;;;;;;;;6.36;100.00;95258.81;5057295;28;19928;-71
2022/10/04 05:34:40;;;;;;;;;;;;;;;6.56;100.00;95259.69;5056522;28;19986;-72
2022/10/04 05:37:18;;;;;;;;;;;;;;;6.80;100.00;95266.09;5055855;28;19995;-72
2022/10/04 05:39:48;;;;;;;;;;;;;;;7.07;100.00;95277.28;5056596;28;19933;-71
2022/10/04 05:42:14;;;;;;;;;;;;;;;7.20;100.00;95270.53;5055415;28;19963;-72
2022/10/04 05:44:55;;;;;;;;;;;;;;;7.28;100.00;95278.13;5051850;28;20059;-71
2022/10/04 05:47:25;;;;;;;;;;;;;;;7.43;100.00;95277.91;5046050;28;19956;-67
2022/10/04 05:49:56;;;;;;;;;;;;;;;7.55;100.00;95283.31;5052241;28;20741;-69
2022/10/04 05:52:32;;;;;;;;;;;;;;;7.71;100.00;95282.88;5059036;28;19928;-68
2022/10/04 05:55:11;;;;;;;;;;;;;;;7.81;100.00;95296.25;5059456;28;19932;-70
2022/10/04 05:57:40;;;;;;;;;;;;;;;7.89;100.00;95302.22;5053609;28;19931;-71
2022/10/04 06:00:14;;;;;;;;;;;;;;;7.96;100.00;95309.00;5080761;28;19925;-69
2022/10/04 06:02:53;;;;;;;;;;;;;;;8.06;100.00;95311.16;5047231;28;21294;-68
2022/10/04 06:05:27;;;;;;;;;;;;;;;8.19;100.00;95311.13;5081961;28;19933;-68
2022/10/04 06:08:13;;;;;;;;;;;;;;;8.32;100.00;95309.47;5046643;28;19967;-67
2022/10/04 06:10:52;;;;;;;;;;;;;;;8.50;100.00;95314.84;5052991;28;19928;-67
2022/10/04 06:13:28;;;;;;;;;;;;;;;8.77;100.00;95322.53;5053934;28;19924;-66
2022/10/04 06:16:01;;;;;;;;;;;;;;;8.89;100.00;95331.25;5058231;28;20429;-66
2022/10/04 06:18:43;;;;;;;;;;;;;;;8.88;100.00;95334.88;5056387;28;20102;-66
2022/10/04 06:21:09;;;;;;;;;;;;;;;9.02;100.00;95329.59;5052931;28;20584;-66
2022/10/04 06:23:41;;;;;;;;;;;;;;;9.28;100.00;95339.84;5054819;28;20023;-68
2022/10/04 06:26:11;;;;;;;;;;;;;;;9.40;100.00;95332.16;5052188;28;19932;-69
2022/10/04 06:28:45;;;;;;;;;;;;;;;9.26;100.00;95341.06;5055004;28;20054;-69
2022/10/04 06:31:12;;;;;;;;;;;;;;;9.38;100.00;95340.19;5055624;28;19936;-68
2022/10/04 06:33:45;;;;;;;;;;;;;;;9.40;100.00;95341.75;5051516;28;19932;-68
2022/10/04 06:36:15;;;;;;;;;;;;;;;9.46;100.00;95346.13;5056762;28;20023;-68
2022/10/04 06:39:01;;;;;;;;;;;;;;;9.36;100.00;95352.59;5041787;28;19932;-68
2022/10/04 06:41:30;;;;;;;;;;;;;;;9.22;100.00;95350.25;5050801;28;20256;-67
2022/10/04 06:44:01;;;;;;;;;;;;;;;9.12;100.00;95350.72;5052738;28;19986;-68
2022/10/04 06:46:42;;;;;;;;;;;;;;;9.01;100.00;95354.00;5053079;28;20088;-71
2022/10/04 06:49:14;;;;;;;;;;;;;;;9.04;100.00;95350.97;5051586;28;19947;-71
2022/10/04 06:51:44;;;;;;;;;;;;;;;9.19;100.00;95356.69;5058735;28;19924;-70
2022/10/04 06:54:23;;;;;;;;;;;;;;;9.18;100.00;95373.28;5050978;28;19924;-68
2022/10/04 06:56:54;;;;;;;;;;;;;;;9.21;100.00;95359.09;5045704;28;20534;-69
2022/10/04 06:59:47;;;;;;;;;;;;;;;9.19;100.00;95359.28;5050606;28;19933;-68
2022/10/04 07:02:18;;;;;;;;;;;;;;;9.32;100.00;95364.41;5028449;28;19959;-68
2022/10/04 07:04:59;;;;;;;;;;;;;;;9.46;100.00;95372.13;5045865;28;19928;-68
2022/10/04 07:07:36;;;;;;;;;;;;;;;9.40;100.00;95378.97;5052842;28;19949;-68
2022/10/04 07:10:05;;;;;;;;;;;;;;;9.57;100.00;95368.84;5052040;28;20019;-68
2022/10/04 07:12:33;;;;;;;;;;;;;;;9.84;100.00;95379.06;5046374;28;19955;-69
2022/10/04 07:15:01;;;;;;;;;;;;;;;9.93;100.00;95372.56;5051234;28;19933;-69
2022/10/04 07:17:31;;;;;;;;;;;;;;;10.16;100.00;95381.59;5050685;28;19932;-69
2022/10/04 07:19:59;;;;;;;;;;;;;;;10.19;100.00;95381.16;5050152;28;19936;-69
2022/10/04 07:22:29;;;;;;;;;;;;;;;10.17;100.00;95377.97;5048999;28;20015;-69
2022/10/04 07:25:02;;;;;;;;;;;;;;;10.31;100.00;95382.06;5040817;28;20011;-68
2022/10/04 07:27:32;;;;;;;;;;;;;;;10.38;100.00;95385.41;5042655;28;19921;-69
2022/10/04 07:30:02;;;;;;;;;;;;;;;10.43;100.00;95382.97;5053010;28;20002;-69
2022/10/04 07:32:33;;;;;;;;;;;;;;;10.56;100.00;95386.44;5084186;28;19929;-69
2022/10/04 07:35:03;;;;;;;;;;;;;;;10.60;100.00;95393.59;5057154;28;19982;-69
2022/10/04 07:37:35;;;;;;;;;;;;;;;10.67;100.00;95389.09;5050655;28;20600;-68
2022/10/04 07:40:20;;;;;;;;;;;;;;;10.84;100.00;95380.69;5044401;28;20160;-69
2022/10/04 07:42:49;;;;;;;;;;;;;;;10.81;100.00;95381.94;5042470;28;20626;-69
2022/10/04 07:45:36;;;;;;;;;;;;;;;11.05;100.00;95379.44;5047495;28;20935;-71
2022/10/04 07:48:15;;;;;;;;;;;;;;;11.20;100.00;95398.13;5046544;28;20589;-67
2022/10/04 07:50:41;;;;;;;;;;;;;;;11.20;100.00;95392.91;5045956;28;19968;-68
2022/10/04 07:53:14;;;;;;;;;;;;;;;11.26;100.00;95402.44;5047595;28;20536;-67
2022/10/04 07:55:41;;;;;;;;;;;;;;;11.26;100.00;95392.00;5047113;28;20420;-68
2022/10/04 07:58:17;;;;;;;;;;;;;;;11.35;100.00;95404.75;5049842;28;19928;-67
2022/10/04 08:00:56;;;;;;;;;;;;;;;11.51;100.00;95404.13;5054372;28;19947;-68
2022/10/04 08:03:25;;;;;;;;;;;;;;;11.50;100.00;95401.72;5052289;28;20015;-68
2022/10/04 08:06:10;;;;;;;;;;;;;;;11.55;100.00;95410.47;5050503;28;19971;-69
2022/10/04 08:08:59;;;;;;;;;;;;;;;11.52;100.00;95405.69;5043509;28;19929;-69
2022/10/04 08:11:42;;;;;;;;;;;;;;;11.53;100.00;95389.03;5052744;28;20142;-69
2022/10/04 08:14:26;;;;;;;;;;;;;;;11.80;100.00;95392.06;5053109;28;20029;-68
2022/10/04 08:16:58;;;;;;;;;;;;;;;12.20;100.00;95390.66;5052652;28;19928;-68
2022/10/04 08:19:25;;;;;;;;;;;;;;;12.35;100.00;95388.38;5051201;28;19968;-68
2022/10/04 08:22:02;;;;;;;;;;;;;;;12.29;100.00;95393.72;5058918;28;19986;-67
2022/10/04 08:24:32;;;;;;;;;;;;;;;12.29;100.00;95404.94;5053177;28;19929;-66
2022/10/04 08:27:19;;;;;;;;;;;;;;;12.55;100.00;95398.47;5050234;28;20725;-67
2022/10/04 08:30:15;;;;;;;;;;;;;;;12.84;100.00;95385.47;5033876;28;20014;-67
2022/10/04 08:32:44;;;;;;;;;;;;;;;12.27;100.00;95390.53;5049105;28;19932;-66
2022/10/04 08:35:27;;;;;;;;;;;;;;;12.04;100.00;95379.84;5065380;28;19929;-72
2022/10/04 08:38:06;;;;;;;;;;;;;;;12.33;100.00;95379.16;5055225;28;19936;-68
2022/10/04 08:40:37;;;;;;;;;;;;;;;12.47;100.00;95379.75;5049689;28;20429;-68
2022/10/04 08:43:16;;;;;;;;;;;;;;;12.64;100.00;95378.03;5048785;28;19995;-68
2022/10/04 08:45:55;;;;;;;;;;;;;;;12.74;100.00;95391.28;5049018;28;20826;-69
2022/10/04 08:48:43;;;;;;;;;;;;;;;12.74;100.00;95374.81;5043422;28;19935;-68
2022/10/04 08:51:36;;;;;;;;;;;;;;;12.93;100.00;95372.84;5049927;28;19929;-67
2022/10/04 08:54:05;;;;;;;;;;;;;;;13.00;100.00;95389.19;5042576;28;19963;-71
2022/10/04 08:56:35;;;;;;;;;;;;;;;13.12;100.00;95387.31;5050936;28;19929;-67
2022/10/04 08:59:27;;;;;;;;;;;;;;;13.15;100.00;95386.84;5043787;28;20518;-69
2022/10/04 09:02:11;;;;;;;;;;;;;;;13.35;100.00;95390.91;5043986;28;19933;-68
2022/10/04 09:04:52;;;;;;;;;;;;;;;13.30;100.00;95388.94;5045395;28;20373;-68
2022/10/04 09:07:49;;;;;;;;;;;;;;;13.57;100.00;95397.03;5045191;28;19959;-68
2022/10/04 09:10:32;;;;;;;;;;;;;;;13.20;100.00;95400.03;5045894;28;20564;-69
2022/10/04 09:12:59;;;;;;;;;;;;;;;13.32;100.00;95401.81;5040669;28;19964;-68
2022/10/04 09:15:30;;;;;;;;;;;;;;;13.31;100.00;95395.03;5042940;28;20006;-68
2022/10/04 09:18:12;;;;;;;;;;;;;;;13.11;100.00;95405.88;5040771;28;20522;-68
2022/10/04 09:20:58;;;;;;;;;;;;;;;13.17;100.00;95400.47;5043378;28;19981;-68
2022/10/04 09:23:28;;;;;;;;;;;;;;;13.40;100.00;95388.38;5038821;28;19924;-69
2022/10/04 09:26:24;;;;;;;;;;;;;;;13.51;100.00;95399.81;5044343;28;20005;-68
2022/10/04 09:29:07;;;;;;;;;;;;;;;13.39;100.00;95402.47;5034478;28;19957;-69
2022/10/04 09:31:47;;;;;;;;;;;;;;;13.18;100.00;95417.78;5075369;28;19925;-68
2022/10/04 09:34:32;;;;;;;;;;;;;;;13.28;100.00;95405.91;5053705;28;19924;-69
2022/10/04 09:37:21;;;;;;;;;;;;;;;13.29;100.00;95407.50;5046577;28;20275;-69
2022/10/04 09:39:47;;;;;;;;;;;;;;;13.54;100.00;95417.66;5044058;28;20019;-69
2022/10/04 09:42:21;;;;;;;;;;;;;;;13.37;100.00;95415.78;5043971;28;20038;-69
2022/10/04 09:44:47;;;;;;;;;;;;;;;13.27;100.00;95404.31;5046078;28;20539;-69
2022/10/04 09:47:36;;;;;;;;;;;;;;;13.28;100.00;95416.38;5075927;28;19983;-69
2022/10/04 09:50:25;;;;;;;;;;;;;;;13.10;100.00;95412.91;5048155;28;19929;-68
2022/10/04 09:53:04;;;;;;;;;;;;;;;13.04;100.00;95421.69;5044574;28;20017;-68
2022/10/04 09:55:49;;;;;;;;;;;;;;;13.13;100.00;95409.84;5046929;28;19925;-68
2022/10/04 09:58:35;;;;;;;;;;;;;;;13.02;100.00;95413.28;5051953;28;19940;-68
2022/10/04 10:01:15;;;;;;;;;;;;;;;13.24;100.00;95415.25;5043025;28;21357;-69
2022/10/04 10:03:50;;;;;;;;;;;;;;;13.52;100.00;95420.53;5049764;28;19929;-68
2022/10/04 10:06:20;;;;;;;;;;;;;;;13.33;100.00;95419.13;5046354;28;19929;-68
2022/10/04 10:08:58;;;;;;;;;;;;;;;13.57;100.00;95415.38;5051512;28;20340;-69
2022/10/04 10:14:42;;;;;;;;;;;;;;;13.83;86.54;95413.19;5047848;28;19982;-68
2022/10/04 10:17:27;;;;;;;;;;;;;;;13.80;83.74;95424.13;5032540;28;20473;-69
2022/10/04 10:20:00;;;;;;;;;;;;;;;13.41;85.26;95416.13;5049800;28;19932;-68
2022/10/04 10:22:46;;;;;;;;;;;;;;;13.54;85.82;95415.03;5053192;28;19929;-69
2022/10/04 10:25:24;;;;;;;;;;;;;;;13.29;86.06;95423.19;5054194;28;20391;-69
2022/10/04 10:27:51;;;;;;;;;;;;;;;13.25;84.85;95415.00;5051828;28;19936;-69
2022/10/04 10:30:24;;;;;;;;;;;;;;;13.33;85.23;95424.34;5055448;28;19928;-68
2022/10/04 10:33:09;;;;;;;;;;;;;;;13.44;84.67;95423.50;5057306;28;20415;-69
2022/10/04 10:35:50;;;;;;;;;;;;;;;13.74;83.45;95419.84;5054051;28;20025;-68
2022/10/04 10:38:20;;;;;;;;;;;;;;;13.71;83.48;95428.19;5057618;28;19933;-69
2022/10/04 10:41:18;;;;;;;;;;;;;;;13.78;84.06;95426.19;5061661;28;19920;-74
2022/10/04 10:44:01;;;;;;;;;;;;;;;14.33;80.19;95437.81;5023865;28;19925;-69
2022/10/04 10:46:38;;;;;;;;;;;;;;;14.67;80.49;95443.03;5055932;28;19936;-70
2022/10/04 10:49:23;;;;;;;;;;;;;;;14.80;77.49;95431.41;5059256;28;19931;-70
2022/10/04 10:51:58;;;;;;;;;;;;;;;15.01;78.05;95438.50;5057763;28;20027;-70
2022/10/04 10:54:44;;;;;;;;;;;;;;;14.58;79.24;95421.69;5060031;28;19931;-67
2022/10/04 10:57:13;;;;;;;;;;;;;;;14.74;81.14;95421.91;5059643;28;19940;-70
2022/10/04 10:59:59;;;;;;;;;;;;;;;15.10;76.91;95437.03;5061922;28;19928;-69
2022/10/04 11:02:35;;;;;;;;;;;;;;;15.49;77.12;95428.28;5057227;28;19932;-70
2022/10/04 11:05:15;;;;;;;;;;;;;;;15.53;73.28;95415.47;5051094;28;19993;-69
2022/10/04 11:08:00;;;;;;;;;;;;;;;15.62;68.22;95421.84;5056837;28;19932;-70
2022/10/04 11:10:31;;;;;;;;;;;;;;;15.80;69.70;95418.13;5051617;28;19933;-70
2022/10/04 11:12:58;;;;;;;;;;;;;;;15.80;69.04;95418.91;5055883;28;19992;-70
2022/10/04 11:15:45;;;;;;;;;;;;;;;16.57;67.78;95416.84;5055428;28;20015;-70
2022/10/04 11:18:32;;;;;;;;;;;;;;;16.51;66.01;95423.13;5038344;28;19935;-70
2022/10/04 11:21:05;;;;;;;;;;;;;;;16.52;66.35;95429.97;5051726;28;20372;-70
2022/10/04 11:23:50;;;;;;;;;;;;;;;15.97;66.83;95424.06;5085101;28;19935;-70
2022/10/04 11:26:18;;;;;;;;;;;;;;;15.95;68.04;95430.59;5053368;28;19963;-67
2022/10/04 11:28:52;;;;;;;;;;;;;;;16.01;67.58;95429.59;5047081;28;19929;-69
2022/10/04 11:31:39;;;;;;;;;;;;;;;15.95;66.34;95425.31;5042743;28;19932;-68
2022/10/04 11:34:24;;;;;;;;;;;;;;;15.56;67.05;95433.34;5052351;28;19954;-69
2022/10/04 11:36:54;;;;;;;;;;;;;;;15.16;68.01;95434.47;5047530;28;20674;-68
2022/10/04 11:39:40;;;;;;;;;;;;;;;15.07;68.71;95432.28;5046518;28;19932;-68
2022/10/04 11:42:28;;;;;;;;;;;;;;;14.63;70.60;95421.75;5044024;28;20592;-68
2022/10/04 11:45:18;;;;;;;;;;;;;;;14.80;71.18;95415.66;5049112;28;19958;-74
2022/10/04 11:48:01;;;;;;;;;;;;;;;14.74;70.45;95432.38;5054281;28;20135;-77
2022/10/04 11:50:34;;;;;;;;;;;;;;;14.81;70.19;95422.53;5058250;28;19936;-74
2022/10/04 11:53:02;;;;;;;;;;;;;;;15.26;68.11;95424.09;5044234;28;19928;-73
2022/10/04 11:55:44;;;;;;;;;;;;;;;15.48;68.58;95422.25;5044647;28;20384;-74
2022/10/04 11:58:17;;;;;;;;;;;;;;;15.47;68.75;95420.66;5049612;28;19982;-73
2022/10/04 12:00:50;;;;;;;;;;;;;;;15.98;65.53;95430.09;5053094;28;19924;-75
2022/10/04 12:03:18;;;;;;;;;;;;;;;15.23;68.49;95425.41;5048777;28;19978;-76
2022/10/04 12:05:57;;;;;;;;;;;;;;;14.83;69.38;95442.22;5048162;28;19925;-74
2022/10/04 12:08:24;;;;;;;;;;;;;;;14.77;70.19;95416.19;5079067;28;19976;-75
2022/10/04 12:11:10;;;;;;;;;;;;;;;14.54;70.55;95417.94;5063407;28;19929;-73
2022/10/04 12:13:40;;;;;;;;;;;;;;;14.56;70.93;95423.72;5047305;28;20586;-72
2022/10/04 12:16:15;;;;;;;;;;;;;;;14.98;70.15;95428.50;5038933;28;19932;-71
2022/10/04 12:18:57;;;;;;;;;;;;;;;15.70;63.69;95439.00;5050323;28;19929;-73
2022/10/04 12:21:41;;;;;;;;;;;;;;;16.04;60.78;95434.34;5046621;28;19937;-74
2022/10/04 12:24:08;;;;;;;;;;;;;;;15.89;64.39;95421.09;5053137;28;19932;-73
2022/10/04 12:26:44;;;;;;;;;;;;;;;15.28;66.07;95429.91;5050111;28;19924;-74
2022/10/04 12:29:14;;;;;;;;;;;;;;;14.76;67.48;95435.56;5051220;28;20020;-75
2022/10/04 12:31:42;;;;;;;;;;;;;;;14.89;67.93;95437.81;5046484;28;19935;-73
2022/10/04 12:34:13;;;;;;;;;;;;;;;15.23;67.66;95435.09;5050454;28;20582;-72
2022/10/04 12:36:51;;;;;;;;;;;;;;;15.89;64.91;95431.59;5052357;28;20638;-74
2022/10/04 12:39:36;;;;;;;;;;;;;;;16.77;60.69;95420.66;5051534;28;20404;-71
2022/10/04 12:42:21;;;;;;;;;;;;;;;17.28;58.89;95443.78;5052452;28;19940;-71
2022/10/04 12:44:56;;;;;;;;;;;;;;;17.03;60.55;95440.00;5051666;28;19928;-73
2022/10/04 12:47:43;;;;;;;;;;;;;;;17.17;58.28;95445.59;5048601;28;19936;-72
2022/10/04 12:50:17;;;;;;;;;;;;;;;18.23;57.55;95442.69;5047181;28;19951;-73
2022/10/04 12:53:02;;;;;;;;;;;;;;;18.28;54.94;95447.94;5062223;28;20403;-74
2022/10/04 12:55:48;;;;;;;;;;;;;;;18.49;53.40;95446.06;5051511;28;19936;-72
2022/10/04 12:58:17;;;;;;;;;;;;;;;17.36;55.93;95448.56;5045306;28;19974;-72
2022/10/04 13:00:45;;;;;;;;;;;;;;;17.48;55.54;95461.50;5049119;28;19986;-74
2022/10/04 13:03:12;;;;;;;;;;;;;;;16.11;65.18;95442.81;5046857;28;20877;-72
2022/10/04 13:05:38;;;;;;;;;;;;;;;15.49;72.41;95444.84;5055645;28;20468;-72
2022/10/04 13:08:20;;;;;;;;;;;;;;;15.40;70.73;95450.78;5045731;28;20026;-73
2022/10/04 13:10:47;;;;;;;;;;;;;;;15.07;75.19;95458.53;5044578;28;19983;-73
2022/10/04 13:13:17;;;;;;;;;;;;;;;14.84;83.94;95453.50;5041439;28;20021;-73
2022/10/04 13:16:05;;;;;;;;;;;;;;;14.41;90.63;95444.50;5081037;28;19933;-73
2022/10/04 13:19:04;;;;;;;;;;;;;;;13.44;100.00;95452.28;5043040;28;19928;-73
2022/10/04 13:21:35;;;;;;;;;;;;;;;12.91;100.00;95446.28;5073699;28;20649;-74
2022/10/04 13:24:12;;;;;;;;;;;;;;;12.81;100.00;95444.22;5042978;28;19963;-73
2022/10/04 13:26:38;;;;;;;;;;;;;;;12.79;100.00;95448.88;5077619;28;19929;-74
2022/10/04 13:29:14;;;;;;;;;;;;;;;12.74;100.00;95453.22;5037694;28;19944;-74